sensor_id;sensor_type;location;lat;lon;timestamp;P1;durP1;ratioP1;P2;durP2;ratioP2
67869;SDS011;54673;52.262;6.830;2023-05-29T00:02:07;6.53;;;1.93;;
67869;SDS011;54673;52.262;6.830;2023-05-29T00:04:32;5.90;;;2.20;;
67869;SDS011;54673;52.262;6.830;2023-05-29T00:06:58;5.77;;;2.90;;
67869;SDS011;54673;52.262;6.830;2023-05-29T00:09:23;5.27;;;1.80;;
67869;SDS011;54673;52.262;6.830;2023-05-29T00:11:50;6.13;;;2.28;;
67869;SDS011;54673;52.262;6.830;2023-05-29T00:14:17;6.43;;;2.40;;
67869;SDS011;54673;52.262;6.830;2023-05-29T00:16:44;7.90;;;2.50;;
67869;SDS011;54673;52.262;6.830;2023-05-29T00:19:14;5.10;;;2.10;;
67869;SDS011;54673;52.262;6.830;2023-05-29T00:21:41;5.80;;;1.92;;
67869;SDS011;54673;52.262;6.830;2023-05-29T00:24:07;6.57;;;2.13;;
67869;SDS011;54673;52.262;6.830;2023-05-29T00:26:33;6.40;;;2.10;;
67869;SDS011;54673;52.262;6.830;2023-05-29T00:28:59;9.30;;;2.20;;
67869;SDS011;54673;52.262;6.830;2023-05-29T00:31:24;7.00;;;2.63;;
67869;SDS011;54673;52.262;6.830;2023-05-29T00:33:50;6.50;;;2.20;;
67869;SDS011;54673;52.262;6.830;2023-05-29T00:36:16;4.97;;;1.90;;
67869;SDS011;54673;52.262;6.830;2023-05-29T00:38:41;6.40;;;2.30;;
67869;SDS011;54673;52.262;6.830;2023-05-29T00:41:07;8.47;;;2.20;;
67869;SDS011;54673;52.262;6.830;2023-05-29T00:43:37;7.18;;;2.05;;
67869;SDS011;54673;52.262;6.830;2023-05-29T00:46:03;4.03;;;1.90;;
67869;SDS011;54673;52.262;6.830;2023-05-29T00:48:29;6.45;;;1.83;;
67869;SDS011;54673;52.262;6.830;2023-05-29T00:50:54;6.33;;;2.10;;
67869;SDS011;54673;52.262;6.830;2023-05-29T00:53:20;6.90;;;2.30;;
67869;SDS011;54673;52.262;6.830;2023-05-29T00:55:47;6.03;;;2.20;;
67869;SDS011;54673;52.262;6.830;2023-05-29T00:58:13;8.30;;;2.27;;
67869;SDS011;54673;52.262;6.830;2023-05-29T01:00:39;6.40;;;1.92;;
67869;SDS011;54673;52.262;6.830;2023-05-29T01:03:05;8.20;;;2.17;;
67869;SDS011;54673;52.262;6.830;2023-05-29T01:05:33;7.37;;;1.97;;
67869;SDS011;54673;52.262;6.830;2023-05-29T01:08:00;6.60;;;2.10;;
67869;SDS011;54673;52.262;6.830;2023-05-29T01:10:27;6.88;;;2.42;;
67869;SDS011;54673;52.262;6.830;2023-05-29T01:13:03;6.93;;;2.07;;
67869;SDS011;54673;52.262;6.830;2023-05-29T01:15:43;6.45;;;2.40;;
67869;SDS011;54673;52.262;6.830;2023-05-29T01:18:19;6.53;;;1.80;;
67869;SDS011;54673;52.262;6.830;2023-05-29T01:20:57;7.17;;;2.20;;
67869;SDS011;54673;52.262;6.830;2023-05-29T01:28:42;7.32;;;2.30;;
67869;SDS011;54673;52.262;6.830;2023-05-29T01:31:12;6.00;;;2.00;;
67869;SDS011;54673;52.262;6.830;2023-05-29T01:33:39;7.82;;;2.20;;
67869;SDS011;54673;52.262;6.830;2023-05-29T01:36:06;5.88;;;2.20;;
67869;SDS011;54673;52.262;6.830;2023-05-29T01:38:36;6.80;;;2.33;;
67869;SDS011;54673;52.262;6.830;2023-05-29T01:41:02;4.78;;;1.85;;
67869;SDS011;54673;52.262;6.830;2023-05-29T01:43:28;4.60;;;1.95;;
67869;SDS011;54673;52.262;6.830;2023-05-29T01:45:55;6.60;;;2.10;;
67869;SDS011;54673;52.262;6.830;2023-05-29T01:48:21;6.07;;;2.13;;
67869;SDS011;54673;52.262;6.830;2023-05-29T01:50:48;6.90;;;2.10;;
67869;SDS011;54673;52.262;6.830;2023-05-29T01:53:14;6.97;;;2.03;;
67869;SDS011;54673;52.262;6.830;2023-05-29T01:55:40;6.30;;;2.08;;
67869;SDS011;54673;52.262;6.830;2023-05-29T01:58:05;6.50;;;1.88;;
67869;SDS011;54673;52.262;6.830;2023-05-29T02:00:32;7.83;;;2.30;;
67869;SDS011;54673;52.262;6.830;2023-05-29T02:02:58;5.57;;;2.05;;
67869;SDS011;54673;52.262;6.830;2023-05-29T02:05:24;6.85;;;1.98;;
67869;SDS011;54673;52.262;6.830;2023-05-29T02:07:49;4.90;;;1.70;;
67869;SDS011;54673;52.262;6.830;2023-05-29T02:10:15;5.73;;;1.97;;
67869;SDS011;54673;52.262;6.830;2023-05-29T02:12:41;9.23;;;2.60;;
67869;SDS011;54673;52.262;6.830;2023-05-29T02:15:06;7.50;;;2.00;;
67869;SDS011;54673;52.262;6.830;2023-05-29T02:17:32;4.47;;;2.10;;
67869;SDS011;54673;52.262;6.830;2023-05-29T02:19:59;7.20;;;2.15;;
67869;SDS011;54673;52.262;6.830;2023-05-29T02:22:24;5.93;;;1.90;;
67869;SDS011;54673;52.262;6.830;2023-05-29T02:24:50;8.20;;;2.27;;
67869;SDS011;54673;52.262;6.830;2023-05-29T02:27:15;5.05;;;1.80;;
67869;SDS011;54673;52.262;6.830;2023-05-29T02:29:41;8.77;;;2.23;;
67869;SDS011;54673;52.262;6.830;2023-05-29T02:32:06;5.47;;;2.00;;
67869;SDS011;54673;52.262;6.830;2023-05-29T02:34:32;5.13;;;1.97;;
67869;SDS011;54673;52.262;6.830;2023-05-29T02:36:58;5.83;;;2.10;;
67869;SDS011;54673;52.262;6.830;2023-05-29T02:39:23;6.45;;;2.00;;
67869;SDS011;54673;52.262;6.830;2023-05-29T02:41:49;4.67;;;1.70;;
67869;SDS011;54673;52.262;6.830;2023-05-29T02:44:14;7.63;;;2.03;;
67869;SDS011;54673;52.262;6.830;2023-05-29T02:46:40;6.63;;;1.80;;
67869;SDS011;54673;52.262;6.830;2023-05-29T02:49:06;6.40;;;1.90;;
67869;SDS011;54673;52.262;6.830;2023-05-29T02:51:31;6.40;;;2.03;;
67869;SDS011;54673;52.262;6.830;2023-05-29T02:54:00;7.37;;;2.07;;
67869;SDS011;54673;52.262;6.830;2023-05-29T02:56:25;6.97;;;1.97;;
67869;SDS011;54673;52.262;6.830;2023-05-29T02:58:51;6.33;;;2.20;;
67869;SDS011;54673;52.262;6.830;2023-05-29T03:01:16;7.68;;;1.88;;
67869;SDS011;54673;52.262;6.830;2023-05-29T03:03:42;5.93;;;1.80;;
67869;SDS011;54673;52.262;6.830;2023-05-29T03:06:08;6.70;;;1.98;;
67869;SDS011;54673;52.262;6.830;2023-05-29T03:08:34;8.07;;;2.13;;
67869;SDS011;54673;52.262;6.830;2023-05-29T03:11:04;5.47;;;2.17;;
67869;SDS011;54673;52.262;6.830;2023-05-29T03:13:32;6.78;;;2.20;;
67869;SDS011;54673;52.262;6.830;2023-05-29T03:15:59;5.85;;;2.20;;
67869;SDS011;54673;52.262;6.830;2023-05-29T03:18:25;6.67;;;2.07;;
67869;SDS011;54673;52.262;6.830;2023-05-29T03:20:50;6.80;;;2.10;;
67869;SDS011;54673;52.262;6.830;2023-05-29T03:23:16;9.37;;;2.17;;
67869;SDS011;54673;52.262;6.830;2023-05-29T03:25:41;4.93;;;1.90;;
67869;SDS011;54673;52.262;6.830;2023-05-29T03:28:07;5.40;;;1.80;;
67869;SDS011;54673;52.262;6.830;2023-05-29T03:30:33;4.33;;;1.60;;
67869;SDS011;54673;52.262;6.830;2023-05-29T03:32:59;4.72;;;1.90;;
67869;SDS011;54673;52.262;6.830;2023-05-29T03:35:28;7.07;;;1.53;;
67869;SDS011;54673;52.262;6.830;2023-05-29T03:37:54;6.95;;;2.00;;
67869;SDS011;54673;52.262;6.830;2023-05-29T03:40:20;3.80;;;2.03;;
67869;SDS011;54673;52.262;6.830;2023-05-29T03:42:45;7.57;;;2.00;;
67869;SDS011;54673;52.262;6.830;2023-05-29T03:45:11;4.67;;;2.43;;
67869;SDS011;54673;52.262;6.830;2023-05-29T03:47:37;6.03;;;2.03;;
67869;SDS011;54673;52.262;6.830;2023-05-29T03:50:02;5.07;;;1.93;;
67869;SDS011;54673;52.262;6.830;2023-05-29T03:52:28;3.38;;;2.00;;
67869;SDS011;54673;52.262;6.830;2023-05-29T03:54:54;6.83;;;2.00;;
67869;SDS011;54673;52.262;6.830;2023-05-29T03:57:19;4.50;;;1.85;;
67869;SDS011;54673;52.262;6.830;2023-05-29T03:59:45;6.53;;;1.90;;
67869;SDS011;54673;52.262;6.830;2023-05-29T04:02:10;4.40;;;2.20;;
67869;SDS011;54673;52.262;6.830;2023-05-29T04:04:36;5.32;;;2.10;;
67869;SDS011;54673;52.262;6.830;2023-05-29T04:07:01;7.67;;;2.07;;
67869;SDS011;54673;52.262;6.830;2023-05-29T04:09:28;5.53;;;2.33;;
67869;SDS011;54673;52.262;6.830;2023-05-29T04:11:53;7.03;;;2.00;;
67869;SDS011;54673;52.262;6.830;2023-05-29T04:14:20;6.53;;;2.38;;
67869;SDS011;54673;52.262;6.830;2023-05-29T04:16:45;8.50;;;2.10;;
67869;SDS011;54673;52.262;6.830;2023-05-29T04:19:11;5.60;;;2.03;;
67869;SDS011;54673;52.262;6.830;2023-05-29T04:21:36;6.23;;;2.00;;
67869;SDS011;54673;52.262;6.830;2023-05-29T04:24:02;6.75;;;1.98;;
67869;SDS011;54673;52.262;6.830;2023-05-29T04:26:28;7.30;;;2.23;;
67869;SDS011;54673;52.262;6.830;2023-05-29T04:28:53;8.17;;;2.00;;
67869;SDS011;54673;52.262;6.830;2023-05-29T04:31:22;7.10;;;2.00;;
67869;SDS011;54673;52.262;6.830;2023-05-29T04:33:50;4.95;;;1.75;;
67869;SDS011;54673;52.262;6.830;2023-05-29T04:36:25;5.25;;;1.50;;
67869;SDS011;54673;52.262;6.830;2023-05-29T04:38:52;4.97;;;1.87;;
67869;SDS011;54673;52.262;6.830;2023-05-29T04:41:18;4.70;;;1.52;;
67869;SDS011;54673;52.262;6.830;2023-05-29T04:43:44;5.13;;;1.77;;
67869;SDS011;54673;52.262;6.830;2023-05-29T04:46:10;4.47;;;1.93;;
67869;SDS011;54673;52.262;6.830;2023-05-29T04:48:40;5.22;;;1.65;;
67869;SDS011;54673;52.262;6.830;2023-05-29T04:51:06;5.18;;;1.70;;
67869;SDS011;54673;52.262;6.830;2023-05-29T04:53:31;3.83;;;1.83;;
67869;SDS011;54673;52.262;6.830;2023-05-29T04:55:57;6.25;;;2.30;;
67869;SDS011;54673;52.262;6.830;2023-05-29T04:58:25;2.80;;;1.70;;
67869;SDS011;54673;52.262;6.830;2023-05-29T05:00:51;5.13;;;1.83;;
67869;SDS011;54673;52.262;6.830;2023-05-29T05:03:16;6.03;;;2.23;;
67869;SDS011;54673;52.262;6.830;2023-05-29T05:05:42;5.28;;;1.90;;
67869;SDS011;54673;52.262;6.830;2023-05-29T05:08:09;4.20;;;1.80;;
67869;SDS011;54673;52.262;6.830;2023-05-29T05:10:36;5.65;;;1.88;;
67869;SDS011;54673;52.262;6.830;2023-05-29T05:13:02;5.10;;;1.95;;
67869;SDS011;54673;52.262;6.830;2023-05-29T05:15:28;6.43;;;2.57;;
67869;SDS011;54673;52.262;6.830;2023-05-29T05:17:53;4.75;;;2.00;;
67869;SDS011;54673;52.262;6.830;2023-05-29T05:20:19;2.97;;;1.70;;
67869;SDS011;54673;52.262;6.830;2023-05-29T05:22:44;4.93;;;2.10;;
67869;SDS011;54673;52.262;6.830;2023-05-29T05:25:10;5.43;;;2.10;;
67869;SDS011;54673;52.262;6.830;2023-05-29T05:27:36;5.50;;;1.75;;
67869;SDS011;54673;52.262;6.830;2023-05-29T05:30:03;6.33;;;1.87;;
67869;SDS011;54673;52.262;6.830;2023-05-29T05:32:28;3.92;;;1.90;;
67869;SDS011;54673;52.262;6.830;2023-05-29T05:34:54;6.47;;;1.90;;
67869;SDS011;54673;52.262;6.830;2023-05-29T05:37:20;3.95;;;1.98;;
67869;SDS011;54673;52.262;6.830;2023-05-29T05:39:48;4.53;;;1.95;;
67869;SDS011;54673;52.262;6.830;2023-05-29T05:42:18;7.03;;;1.70;;
67869;SDS011;54673;52.262;6.830;2023-05-29T05:44:44;3.97;;;1.83;;
67869;SDS011;54673;52.262;6.830;2023-05-29T05:47:10;3.93;;;1.70;;
67869;SDS011;54673;52.262;6.830;2023-05-29T05:49:35;3.72;;;1.60;;
67869;SDS011;54673;52.262;6.830;2023-05-29T05:52:01;5.17;;;1.80;;
67869;SDS011;54673;52.262;6.830;2023-05-29T05:54:26;3.90;;;2.05;;
67869;SDS011;54673;52.262;6.830;2023-05-29T05:56:52;4.30;;;1.97;;
67869;SDS011;54673;52.262;6.830;2023-05-29T05:59:17;4.43;;;2.00;;
67869;SDS011;54673;52.262;6.830;2023-05-29T06:01:43;4.40;;;1.48;;
67869;SDS011;54673;52.262;6.830;2023-05-29T06:04:08;5.07;;;1.70;;
67869;SDS011;54673;52.262;6.830;2023-05-29T06:06:34;5.43;;;1.63;;
67869;SDS011;54673;52.262;6.830;2023-05-29T06:09:00;3.23;;;1.73;;
67869;SDS011;54673;52.262;6.830;2023-05-29T06:11:26;4.97;;;1.45;;
67869;SDS011;54673;52.262;6.830;2023-05-29T06:13:51;3.67;;;1.73;;
67869;SDS011;54673;52.262;6.830;2023-05-29T06:16:17;4.13;;;1.83;;
67869;SDS011;54673;52.262;6.830;2023-05-29T06:18:43;3.63;;;1.90;;
67869;SDS011;54673;52.262;6.830;2023-05-29T06:21:09;5.97;;;1.93;;
67869;SDS011;54673;52.262;6.830;2023-05-29T06:23:36;3.60;;;1.70;;
67869;SDS011;54673;52.262;6.830;2023-05-29T06:26:02;4.40;;;1.83;;
67869;SDS011;54673;52.262;6.830;2023-05-29T06:28:28;4.18;;;1.48;;
67869;SDS011;54673;52.262;6.830;2023-05-29T06:30:54;3.90;;;1.67;;
67869;SDS011;54673;52.262;6.830;2023-05-29T06:33:20;4.00;;;2.00;;
67869;SDS011;54673;52.262;6.830;2023-05-29T06:35:47;3.55;;;1.70;;
67869;SDS011;54673;52.262;6.830;2023-05-29T06:38:13;4.95;;;1.95;;
67869;SDS011;54673;52.262;6.830;2023-05-29T06:40:39;4.67;;;1.50;;
67869;SDS011;54673;52.262;6.830;2023-05-29T06:43:04;3.95;;;1.45;;
67869;SDS011;54673;52.262;6.830;2023-05-29T06:45:30;4.37;;;1.80;;
67869;SDS011;54673;52.262;6.830;2023-05-29T06:47:55;2.58;;;1.50;;
67869;SDS011;54673;52.262;6.830;2023-05-29T06:50:21;4.13;;;1.40;;
67869;SDS011;54673;52.262;6.830;2023-05-29T06:52:47;3.45;;;1.65;;
67869;SDS011;54673;52.262;6.830;2023-05-29T06:55:12;3.37;;;1.43;;
67869;SDS011;54673;52.262;6.830;2023-05-29T06:57:38;2.92;;;1.70;;
67869;SDS011;54673;52.262;6.830;2023-05-29T07:00:04;3.33;;;1.40;;
67869;SDS011;54673;52.262;6.830;2023-05-29T07:02:31;5.50;;;1.95;;
67869;SDS011;54673;52.262;6.830;2023-05-29T07:04:57;4.37;;;1.50;;
67869;SDS011;54673;52.262;6.830;2023-05-29T07:07:22;3.97;;;1.63;;
67869;SDS011;54673;52.262;6.830;2023-05-29T07:09:48;4.10;;;1.80;;
67869;SDS011;54673;52.262;6.830;2023-05-29T07:12:13;5.20;;;1.85;;
67869;SDS011;54673;52.262;6.830;2023-05-29T07:14:39;3.10;;;1.67;;
67869;SDS011;54673;52.262;6.830;2023-05-29T07:17:05;4.55;;;1.60;;
67869;SDS011;54673;52.262;6.830;2023-05-29T07:19:30;3.37;;;1.60;;
67869;SDS011;54673;52.262;6.830;2023-05-29T07:21:58;2.90;;;1.45;;
67869;SDS011;54673;52.262;6.830;2023-05-29T07:24:24;9.17;;;2.07;;
67869;SDS011;54673;52.262;6.830;2023-05-29T07:26:50;3.83;;;1.75;;
67869;SDS011;54673;52.262;6.830;2023-05-29T07:29:16;4.40;;;1.50;;
67869;SDS011;54673;52.262;6.830;2023-05-29T07:31:43;5.80;;;1.50;;
67869;SDS011;54673;52.262;6.830;2023-05-29T07:34:09;7.28;;;1.45;;
67869;SDS011;54673;52.262;6.830;2023-05-29T07:36:35;4.20;;;1.80;;
67869;SDS011;54673;52.262;6.830;2023-05-29T07:39:01;7.18;;;2.22;;
67869;SDS011;54673;52.262;6.830;2023-05-29T07:41:27;6.97;;;1.88;;
67869;SDS011;54673;52.262;6.830;2023-05-29T07:43:53;3.30;;;1.83;;
67869;SDS011;54673;52.262;6.830;2023-05-29T07:46:20;8.15;;;1.77;;
67869;SDS011;54673;52.262;6.830;2023-05-29T07:48:46;6.55;;;1.77;;
67869;SDS011;54673;52.262;6.830;2023-05-29T07:51:12;6.10;;;1.70;;
67869;SDS011;54673;52.262;6.830;2023-05-29T07:53:38;9.15;;;2.33;;
67869;SDS011;54673;52.262;6.830;2023-05-29T07:56:03;8.57;;;2.03;;
67869;SDS011;54673;52.262;6.830;2023-05-29T07:58:29;6.10;;;2.00;;
67869;SDS011;54673;52.262;6.830;2023-05-29T08:00:55;6.73;;;2.27;;
67869;SDS011;54673;52.262;6.830;2023-05-29T08:03:21;7.63;;;2.05;;
67869;SDS011;54673;52.262;6.830;2023-05-29T08:05:47;6.83;;;1.83;;
67869;SDS011;54673;52.262;6.830;2023-05-29T08:08:12;7.03;;;2.05;;
67869;SDS011;54673;52.262;6.830;2023-05-29T08:10:38;7.50;;;1.93;;
67869;SDS011;54673;52.262;6.830;2023-05-29T08:13:04;5.82;;;2.00;;
67869;SDS011;54673;52.262;6.830;2023-05-29T08:15:30;6.23;;;2.20;;
67869;SDS011;54673;52.262;6.830;2023-05-29T08:17:56;5.72;;;1.88;;
67869;SDS011;54673;52.262;6.830;2023-05-29T08:20:22;6.45;;;1.75;;
67869;SDS011;54673;52.262;6.830;2023-05-29T08:22:47;10.03;;;2.17;;
67869;SDS011;54673;52.262;6.830;2023-05-29T08:25:13;5.50;;;2.20;;
67869;SDS011;54673;52.262;6.830;2023-05-29T08:27:39;6.07;;;2.10;;
67869;SDS011;54673;52.262;6.830;2023-05-29T08:30:04;8.37;;;1.97;;
67869;SDS011;54673;52.262;6.830;2023-05-29T08:32:30;6.25;;;1.77;;
67869;SDS011;54673;52.262;6.830;2023-05-29T08:34:56;6.63;;;1.90;;
67869;SDS011;54673;52.262;6.830;2023-05-29T08:37:21;6.53;;;2.10;;
67869;SDS011;54673;52.262;6.830;2023-05-29T08:39:47;6.77;;;2.30;;
67869;SDS011;54673;52.262;6.830;2023-05-29T08:42:14;11.73;;;2.00;;
67869;SDS011;54673;52.262;6.830;2023-05-29T08:44:47;9.40;;;2.10;;
67869;SDS011;54673;52.262;6.830;2023-05-29T08:47:16;20.70;;;2.10;;
67869;SDS011;54673;52.262;6.830;2023-05-29T08:49:47;6.22;;;2.00;;
67869;SDS011;54673;52.262;6.830;2023-05-29T08:52:18;9.38;;;2.10;;
67869;SDS011;54673;52.262;6.830;2023-05-29T08:54:45;12.60;;;2.30;;
67869;SDS011;54673;52.262;6.830;2023-05-29T08:57:11;12.60;;;2.47;;
67869;SDS011;54673;52.262;6.830;2023-05-29T08:59:37;8.00;;;2.08;;
67869;SDS011;54673;52.262;6.830;2023-05-29T09:02:07;9.80;;;2.23;;
67869;SDS011;54673;52.262;6.830;2023-05-29T09:04:32;8.70;;;2.30;;
67869;SDS011;54673;52.262;6.830;2023-05-29T09:06:59;9.38;;;2.17;;
67869;SDS011;54673;52.262;6.830;2023-05-29T09:09:27;6.77;;;1.87;;
67869;SDS011;54673;52.262;6.830;2023-05-29T09:11:56;10.63;;;2.05;;
67869;SDS011;54673;52.262;6.830;2023-05-29T09:14:31;9.18;;;2.10;;
67869;SDS011;54673;52.262;6.830;2023-05-29T09:17:07;5.27;;;1.70;;
67869;SDS011;54673;52.262;6.830;2023-05-29T09:19:35;6.70;;;1.80;;
67869;SDS011;54673;52.262;6.830;2023-05-29T09:24:39;14.17;;;1.87;;
67869;SDS011;54673;52.262;6.830;2023-05-29T09:27:06;6.93;;;2.30;;
67869;SDS011;54673;52.262;6.830;2023-05-29T09:29:40;10.75;;;2.60;;
67869;SDS011;54673;52.262;6.830;2023-05-29T09:32:10;10.13;;;2.30;;
67869;SDS011;54673;52.262;6.830;2023-05-29T09:34:37;7.93;;;1.87;;
67869;SDS011;54673;52.262;6.830;2023-05-29T09:37:08;9.32;;;2.58;;
67869;SDS011;54673;52.262;6.830;2023-05-29T09:39:44;11.93;;;2.42;;
67869;SDS011;54673;52.262;6.830;2023-05-29T09:42:11;10.00;;;2.07;;
67869;SDS011;54673;52.262;6.830;2023-05-29T09:44:37;6.13;;;2.15;;
67869;SDS011;54673;52.262;6.830;2023-05-29T09:47:05;9.05;;;2.28;;
67869;SDS011;54673;52.262;6.830;2023-05-29T09:49:31;8.53;;;2.43;;
67869;SDS011;54673;52.262;6.830;2023-05-29T09:51:57;7.07;;;2.00;;
67869;SDS011;54673;52.262;6.830;2023-05-29T09:54:28;7.20;;;2.03;;
67869;SDS011;54673;52.262;6.830;2023-05-29T09:56:54;6.60;;;2.20;;
67869;SDS011;54673;52.262;6.830;2023-05-29T09:59:22;6.60;;;2.10;;
67869;SDS011;54673;52.262;6.830;2023-05-29T10:01:49;6.93;;;2.00;;
67869;SDS011;54673;52.262;6.830;2023-05-29T10:04:25;8.98;;;1.98;;
67869;SDS011;54673;52.262;6.830;2023-05-29T10:06:50;6.53;;;2.20;;
67869;SDS011;54673;52.262;6.830;2023-05-29T10:09:17;9.77;;;2.35;;
67869;SDS011;54673;52.262;6.830;2023-05-29T10:11:46;6.17;;;2.30;;
67869;SDS011;54673;52.262;6.830;2023-05-29T10:14:16;5.88;;;1.85;;
67869;SDS011;54673;52.262;6.830;2023-05-29T10:16:44;5.70;;;2.28;;
67869;SDS011;54673;52.262;6.830;2023-05-29T10:19:12;8.37;;;2.43;;
67869;SDS011;54673;52.262;6.830;2023-05-29T10:21:40;4.57;;;2.03;;
67869;SDS011;54673;52.262;6.830;2023-05-29T10:24:07;5.80;;;2.58;;
67869;SDS011;54673;52.262;6.830;2023-05-29T10:26:38;8.07;;;2.28;;
67869;SDS011;54673;52.262;6.830;2023-05-29T10:32:23;7.45;;;2.10;;
67869;SDS011;54673;52.262;6.830;2023-05-29T10:35:05;9.02;;;2.08;;
67869;SDS011;54673;52.262;6.830;2023-05-29T10:40:13;10.35;;;2.17;;
67869;SDS011;54673;52.262;6.830;2023-05-29T10:42:48;6.93;;;2.58;;
67869;SDS011;54673;52.262;6.830;2023-05-29T10:47:56;4.70;;;1.90;;
67869;SDS011;54673;52.262;6.830;2023-05-29T10:50:45;8.43;;;2.08;;
67869;SDS011;54673;52.262;6.830;2023-05-29T10:53:22;10.77;;;2.40;;
67869;SDS011;54673;52.262;6.830;2023-05-29T10:55:49;10.70;;;2.10;;
67869;SDS011;54673;52.262;6.830;2023-05-29T10:58:22;7.18;;;2.10;;
67869;SDS011;54673;52.262;6.830;2023-05-29T11:00:50;9.70;;;2.63;;
67869;SDS011;54673;52.262;6.830;2023-05-29T11:03:22;18.63;;;2.83;;
67869;SDS011;54673;52.262;6.830;2023-05-29T11:06:03;7.72;;;2.15;;
67869;SDS011;54673;52.262;6.830;2023-05-29T11:08:42;6.30;;;2.78;;
67869;SDS011;54673;52.262;6.830;2023-05-29T11:11:12;7.40;;;2.70;;
67869;SDS011;54673;52.262;6.830;2023-05-29T11:13:39;7.10;;;2.40;;
67869;SDS011;54673;52.262;6.830;2023-05-29T11:18:59;5.72;;;2.50;;
67869;SDS011;54673;52.262;6.830;2023-05-29T11:24:23;8.73;;;2.70;;
67869;SDS011;54673;52.262;6.830;2023-05-29T11:26:53;5.80;;;2.30;;
67869;SDS011;54673;52.262;6.830;2023-05-29T11:29:23;6.40;;;2.57;;
67869;SDS011;54673;52.262;6.830;2023-05-29T11:31:58;5.03;;;2.28;;
67869;SDS011;54673;52.262;6.830;2023-05-29T11:34:25;6.80;;;2.42;;
67869;SDS011;54673;52.262;6.830;2023-05-29T11:36:53;9.27;;;2.50;;
67869;SDS011;54673;52.262;6.830;2023-05-29T11:39:19;8.83;;;2.80;;
67869;SDS011;54673;52.262;6.830;2023-05-29T11:41:44;9.45;;;2.50;;
67869;SDS011;54673;52.262;6.830;2023-05-29T11:44:14;5.40;;;2.27;;
67869;SDS011;54673;52.262;6.830;2023-05-29T11:46:40;10.50;;;2.67;;
67869;SDS011;54673;52.262;6.830;2023-05-29T11:49:05;9.57;;;2.80;;
67869;SDS011;54673;52.262;6.830;2023-05-29T11:51:31;11.73;;;2.40;;
67869;SDS011;54673;52.262;6.830;2023-05-29T11:53:57;5.93;;;2.00;;
67869;SDS011;54673;52.262;6.830;2023-05-29T11:56:26;8.20;;;2.60;;
67869;SDS011;54673;52.262;6.830;2023-05-29T11:58:53;5.57;;;2.10;;
67869;SDS011;54673;52.262;6.830;2023-05-29T12:01:24;7.15;;;2.42;;
67869;SDS011;54673;52.262;6.830;2023-05-29T12:03:50;7.78;;;2.53;;
67869;SDS011;54673;52.262;6.830;2023-05-29T12:06:16;7.80;;;2.30;;
67869;SDS011;54673;52.262;6.830;2023-05-29T12:08:59;10.15;;;2.40;;
67869;SDS011;54673;52.262;6.830;2023-05-29T12:11:26;10.70;;;2.35;;
67869;SDS011;54673;52.262;6.830;2023-05-29T12:13:58;5.63;;;2.10;;
67869;SDS011;54673;52.262;6.830;2023-05-29T12:16:30;7.82;;;2.50;;
67869;SDS011;54673;52.262;6.830;2023-05-29T12:18:58;8.45;;;2.15;;
67869;SDS011;54673;52.262;6.830;2023-05-29T12:21:26;8.97;;;2.30;;
67869;SDS011;54673;52.262;6.830;2023-05-29T12:23:52;12.43;;;2.80;;
67869;SDS011;54673;52.262;6.830;2023-05-29T12:26:22;6.88;;;2.30;;
67869;SDS011;54673;52.262;6.830;2023-05-29T12:28:50;10.87;;;2.37;;
67869;SDS011;54673;52.262;6.830;2023-05-29T12:31:26;7.65;;;2.20;;
67869;SDS011;54673;52.262;6.830;2023-05-29T12:33:53;8.75;;;2.20;;
67869;SDS011;54673;52.262;6.830;2023-05-29T12:36:18;10.93;;;2.53;;
67869;SDS011;54673;52.262;6.830;2023-05-29T12:38:51;7.25;;;2.70;;
67869;SDS011;54673;52.262;6.830;2023-05-29T12:41:27;8.77;;;2.80;;
67869;SDS011;54673;52.262;6.830;2023-05-29T12:43:54;7.82;;;2.53;;
67869;SDS011;54673;52.262;6.830;2023-05-29T12:46:21;6.55;;;2.60;;
67869;SDS011;54673;52.262;6.830;2023-05-29T12:48:47;8.27;;;2.67;;
67869;SDS011;54673;52.262;6.830;2023-05-29T12:51:14;7.18;;;2.42;;
67869;SDS011;54673;52.262;6.830;2023-05-29T12:53:42;8.20;;;2.78;;
67869;SDS011;54673;52.262;6.830;2023-05-29T12:56:08;7.20;;;2.17;;
67869;SDS011;54673;52.262;6.830;2023-05-29T12:58:33;10.07;;;2.88;;
67869;SDS011;54673;52.262;6.830;2023-05-29T13:00:59;11.00;;;2.80;;
67869;SDS011;54673;52.262;6.830;2023-05-29T13:03:25;8.43;;;2.30;;
67869;SDS011;54673;52.262;6.830;2023-05-29T13:05:50;9.40;;;2.67;;
67869;SDS011;54673;52.262;6.830;2023-05-29T13:08:17;8.30;;;2.35;;
67869;SDS011;54673;52.262;6.830;2023-05-29T13:10:43;6.40;;;2.30;;
67869;SDS011;54673;52.262;6.830;2023-05-29T13:13:09;29.77;;;2.53;;
67869;SDS011;54673;52.262;6.830;2023-05-29T13:15:37;11.57;;;2.72;;
67869;SDS011;54673;52.262;6.830;2023-05-29T13:18:05;7.83;;;2.20;;
67869;SDS011;54673;52.262;6.830;2023-05-29T13:20:30;7.73;;;2.90;;
67869;SDS011;54673;52.262;6.830;2023-05-29T13:22:57;6.00;;;2.53;;
67869;SDS011;54673;52.262;6.830;2023-05-29T13:25:22;8.77;;;2.50;;
67869;SDS011;54673;52.262;6.830;2023-05-29T13:27:50;6.95;;;2.50;;
67869;SDS011;54673;52.262;6.830;2023-05-29T13:30:16;7.70;;;2.35;;
67869;SDS011;54673;52.262;6.830;2023-05-29T13:32:42;11.07;;;2.60;;
67869;SDS011;54673;52.262;6.830;2023-05-29T13:35:07;7.00;;;2.38;;
67869;SDS011;54673;52.262;6.830;2023-05-29T13:37:35;8.00;;;2.30;;
67869;SDS011;54673;52.262;6.830;2023-05-29T13:40:01;5.55;;;2.20;;
67869;SDS011;54673;52.262;6.830;2023-05-29T13:42:27;7.15;;;2.30;;
67869;SDS011;54673;52.262;6.830;2023-05-29T13:44:52;7.57;;;2.20;;
67869;SDS011;54673;52.262;6.830;2023-05-29T13:47:18;7.88;;;2.50;;
67869;SDS011;54673;52.262;6.830;2023-05-29T13:49:44;8.40;;;2.93;;
67869;SDS011;54673;52.262;6.830;2023-05-29T13:52:10;7.25;;;2.92;;
67869;SDS011;54673;52.262;6.830;2023-05-29T13:54:36;9.63;;;2.73;;
67869;SDS011;54673;52.262;6.830;2023-05-29T13:57:02;10.43;;;2.35;;
67869;SDS011;54673;52.262;6.830;2023-05-29T13:59:28;9.52;;;2.33;;
67869;SDS011;54673;52.262;6.830;2023-05-29T14:01:54;6.87;;;2.33;;
67869;SDS011;54673;52.262;6.830;2023-05-29T14:04:20;8.32;;;2.35;;
67869;SDS011;54673;52.262;6.830;2023-05-29T14:06:45;10.00;;;2.60;;
67869;SDS011;54673;52.262;6.830;2023-05-29T14:09:11;7.30;;;2.47;;
67869;SDS011;54673;52.262;6.830;2023-05-29T14:11:37;7.50;;;2.53;;
67869;SDS011;54673;52.262;6.830;2023-05-29T14:14:03;8.60;;;2.50;;
67869;SDS011;54673;52.262;6.830;2023-05-29T14:16:29;9.60;;;2.53;;
67869;SDS011;54673;52.262;6.830;2023-05-29T14:18:55;8.00;;;2.47;;
67869;SDS011;54673;52.262;6.830;2023-05-29T14:21:20;8.83;;;2.40;;
67869;SDS011;54673;52.262;6.830;2023-05-29T14:23:46;5.57;;;2.10;;
67869;SDS011;54673;52.262;6.830;2023-05-29T14:26:12;10.57;;;2.53;;
67869;SDS011;54673;52.262;6.830;2023-05-29T14:28:37;8.57;;;2.55;;
67869;SDS011;54673;52.262;6.830;2023-05-29T14:31:04;10.17;;;2.50;;
67869;SDS011;54673;52.262;6.830;2023-05-29T14:33:30;6.43;;;2.13;;
67869;SDS011;54673;52.262;6.830;2023-05-29T14:35:55;8.65;;;2.50;;
67869;SDS011;54673;52.262;6.830;2023-05-29T14:38:22;4.17;;;1.93;;
67869;SDS011;54673;52.262;6.830;2023-05-29T14:40:48;5.28;;;2.20;;
67869;SDS011;54673;52.262;6.830;2023-05-29T14:43:13;12.10;;;2.77;;
67869;SDS011;54673;52.262;6.830;2023-05-29T14:45:39;7.93;;;1.90;;
67869;SDS011;54673;52.262;6.830;2023-05-29T14:48:04;6.53;;;2.20;;
67869;SDS011;54673;52.262;6.830;2023-05-29T14:50:30;10.23;;;2.75;;
67869;SDS011;54673;52.262;6.830;2023-05-29T14:52:55;8.47;;;2.30;;
67869;SDS011;54673;52.262;6.830;2023-05-29T14:55:21;12.57;;;2.40;;
67869;SDS011;54673;52.262;6.830;2023-05-29T14:57:47;6.95;;;2.28;;
67869;SDS011;54673;52.262;6.830;2023-05-29T15:00:13;5.80;;;2.57;;
67869;SDS011;54673;52.262;6.830;2023-05-29T15:02:40;7.35;;;3.00;;
67869;SDS011;54673;52.262;6.830;2023-05-29T15:05:05;7.03;;;2.70;;
67869;SDS011;54673;52.262;6.830;2023-05-29T15:07:32;12.23;;;2.63;;